createdAt,value
2022-11-30T00:00:37.739Z,37.10
2022-11-30T00:03:04.738Z,35.63
2022-11-30T00:05:31.619Z,37.40
2022-11-30T00:08:00.910Z,36.30
2022-11-30T00:10:27.316Z,36.70
2022-11-30T00:12:53.969Z,36.93
2022-11-30T00:15:20.557Z,37.17
2022-11-30T00:17:47.175Z,38.13
2022-11-30T00:20:15.133Z,36.63
2022-11-30T00:22:42.055Z,36.37
2022-11-30T00:25:08.979Z,37.27
2022-11-30T00:27:35.815Z,36.67
2022-11-30T00:30:02.300Z,34.57
2022-11-30T00:32:29.390Z,33.20
2022-11-30T00:34:55.878Z,36.37
2022-11-30T00:37:22.688Z,35.77
2022-11-30T00:39:49.079Z,35.30
2022-11-30T00:42:15.423Z,36.87
2022-11-30T00:44:41.903Z,37.53
2022-11-30T00:47:08.392Z,33.60
2022-11-30T00:49:34.859Z,34.90
2022-11-30T00:52:01.797Z,37.40
2022-11-30T00:54:28.382Z,34.50
2022-11-30T00:56:54.702Z,35.27
2022-11-30T00:59:21.158Z,34.83
2022-11-30T01:01:47.552Z,37.90
2022-11-30T01:04:14.157Z,36.80
2022-11-30T01:06:40.514Z,35.70
2022-11-30T01:09:06.963Z,36.10
2022-11-30T01:11:33.290Z,36.60
2022-11-30T01:14:00.306Z,35.83
2022-11-30T01:16:32.563Z,36.33
2022-11-30T01:18:59.536Z,37.90
2022-11-30T01:21:27.774Z,33.73
2022-11-30T01:23:55.226Z,33.23
2022-11-30T01:26:21.881Z,34.20
2022-11-30T01:28:55.310Z,34.80
2022-11-30T01:31:24.477Z,33.67
2022-11-30T01:33:53.314Z,35.60
2022-11-30T01:36:22.474Z,35.13
2022-11-30T01:38:51.548Z,34.07
2022-11-30T01:41:22.513Z,34.07
2022-11-30T01:43:52.074Z,33.23
2022-11-30T01:46:36.242Z,34.00
2022-11-30T01:49:08.739Z,32.13
2022-11-30T01:51:46.389Z,36.43
2022-11-30T01:54:15.804Z,31.70
2022-11-30T01:56:46.956Z,33.83
2022-11-30T01:59:14.068Z,34.47
2022-11-30T02:01:40.911Z,35.90
2022-11-30T02:04:18.202Z,32.77
2022-11-30T02:06:45.473Z,32.70
2022-11-30T02:09:13.183Z,33.30
2022-11-30T02:11:40.253Z,34.17
2022-11-30T02:14:20.965Z,32.50
2022-11-30T02:17:01.917Z,30.97
2022-11-30T02:20:06.933Z,35.43
2022-11-30T02:23:03.845Z,32.97
2022-11-30T02:25:59.842Z,34.13
2022-11-30T02:28:44.318Z,34.90
2022-11-30T02:31:16.727Z,33.20
2022-11-30T02:33:44.353Z,33.00
2022-11-30T02:36:11.318Z,33.47
2022-11-30T02:38:38.090Z,33.17
2022-11-30T02:41:04.525Z,34.17
2022-11-30T02:43:32.006Z,33.40
2022-11-30T02:46:27.466Z,34.30
2022-11-30T02:49:07.249Z,36.20
2022-11-30T02:51:36.312Z,34.43
2022-11-30T02:54:02.822Z,35.53
2022-11-30T02:56:29.667Z,34.93
2022-11-30T02:58:56.011Z,37.13
2022-11-30T03:01:22.637Z,35.83
2022-11-30T03:03:48.985Z,33.97
2022-11-30T03:06:15.354Z,33.80
2022-11-30T03:08:41.691Z,35.90
2022-11-30T03:11:08.237Z,34.60
2022-11-30T03:13:34.652Z,35.83
2022-11-30T03:16:12.887Z,34.67
2022-11-30T03:18:40.118Z,35.17
2022-11-30T03:21:11.165Z,36.10
2022-11-30T03:23:39.116Z,36.57
2022-11-30T03:26:08.096Z,33.60
2022-11-30T03:28:35.759Z,36.40
2022-11-30T03:31:02.594Z,37.13
2022-11-30T03:33:28.970Z,32.97
2022-11-30T03:36:09.693Z,36.23
2022-11-30T03:38:36.485Z,33.97
2022-11-30T03:41:19.451Z,36.23
2022-11-30T03:43:46.894Z,33.70
2022-11-30T03:46:13.864Z,33.47
2022-11-30T03:48:41.383Z,34.40
2022-11-30T03:51:08.475Z,35.00
2022-11-30T03:53:34.819Z,34.90
2022-11-30T03:56:04.594Z,36.13
2022-11-30T03:58:31.075Z,37.13
2022-11-30T04:01:07.945Z,36.83
2022-11-30T04:03:35.091Z,32.27
2022-11-30T04:06:02.503Z,33.77
2022-11-30T04:08:29.297Z,34.00
2022-11-30T04:10:57.740Z,33.60
2022-11-30T04:13:25.163Z,33.10
2022-11-30T04:15:53.223Z,34.10
2022-11-30T04:18:21.611Z,34.83
2022-11-30T04:20:53.692Z,35.83
2022-11-30T04:23:20.709Z,34.37
2022-11-30T04:25:48.191Z,33.90
2022-11-30T04:28:16.230Z,34.73
2022-11-30T04:30:43.296Z,32.40
2022-11-30T04:33:10.043Z,32.80
2022-11-30T04:35:51.617Z,34.03
2022-11-30T04:38:18.106Z,33.77
2022-11-30T04:40:44.695Z,36.20
2022-11-30T04:43:13.826Z,36.90
2022-11-30T04:45:40.451Z,36.37
2022-11-30T04:48:07.595Z,37.23
2022-11-30T04:50:34.121Z,36.20
2022-11-30T04:53:00.783Z,37.60
2022-11-30T04:55:27.109Z,36.17
2022-11-30T04:57:53.736Z,36.20
2022-11-30T05:00:20.574Z,37.63
2022-11-30T05:02:52.472Z,35.13
2022-11-30T05:05:19.823Z,41.17
2022-11-30T05:07:58.834Z,36.20
2022-11-30T05:10:26.794Z,37.93
2022-11-30T05:12:53.502Z,35.63
2022-11-30T05:15:20.345Z,37.40
2022-11-30T05:17:46.813Z,35.70
2022-11-30T05:20:13.565Z,40.10
2022-11-30T05:22:39.944Z,36.77
2022-11-30T05:25:07.031Z,39.87
2022-11-30T05:27:33.566Z,37.40
2022-11-30T05:29:59.947Z,38.40
2022-11-30T05:32:26.487Z,37.53
2022-11-30T05:34:53.110Z,36.13
2022-11-30T05:37:19.869Z,37.10
2022-11-30T05:39:46.313Z,38.03
2022-11-30T05:42:12.756Z,39.87
2022-11-30T05:44:39.096Z,40.87
2022-11-30T05:47:05.527Z,37.67
2022-11-30T05:49:32.196Z,38.70
2022-11-30T05:51:58.519Z,36.90
2022-11-30T05:54:24.922Z,37.00
2022-11-30T05:56:54.680Z,37.23
2022-11-30T05:59:21.857Z,35.40
2022-11-30T06:01:48.239Z,36.00
2022-11-30T06:04:14.767Z,34.67
2022-11-30T06:06:41.115Z,37.17
2022-11-30T06:09:07.795Z,38.20
2022-11-30T06:11:34.143Z,35.67
2022-11-30T06:14:00.509Z,35.93
2022-11-30T06:16:26.928Z,36.47
2022-11-30T06:18:53.570Z,37.30
2022-11-30T06:21:24.376Z,43.37
2022-11-30T06:23:52.158Z,39.77
2022-11-30T06:26:18.511Z,40.80
2022-11-30T06:28:48.085Z,38.93
2022-11-30T06:31:16.797Z,39.13
2022-11-30T06:33:43.551Z,38.93
2022-11-30T06:36:10.314Z,40.63
2022-11-30T06:38:36.753Z,37.33
2022-11-30T06:41:08.397Z,40.30
2022-11-30T06:43:36.698Z,40.57
2022-11-30T06:46:04.525Z,38.00
2022-11-30T06:48:31.326Z,35.90
2022-11-30T06:50:58.493Z,38.80
2022-11-30T06:53:25.402Z,39.47
2022-11-30T06:55:52.347Z,36.70
2022-11-30T06:58:19.067Z,36.70
2022-11-30T07:00:45.894Z,36.73
2022-11-30T07:03:14.511Z,36.63
2022-11-30T07:05:43.845Z,36.53
2022-11-30T07:08:20.959Z,37.57
2022-11-30T07:10:47.512Z,36.50
2022-11-30T07:13:16.601Z,36.67
2022-11-30T07:15:43.731Z,36.77
2022-11-30T07:18:10.122Z,35.80
2022-11-30T07:20:37.491Z,38.43
2022-11-30T07:23:22.754Z,33.97
2022-11-30T07:26:08.016Z,35.90
2022-11-30T07:28:36.100Z,37.10
2022-11-30T07:31:34.238Z,35.97
2022-11-30T07:34:05.972Z,36.43
2022-11-30T07:36:33.430Z,34.63
2022-11-30T07:39:00.129Z,36.03
2022-11-30T07:41:26.587Z,36.60
2022-11-30T07:43:53.144Z,36.07
2022-11-30T07:46:19.709Z,36.63
2022-11-30T07:48:46.618Z,34.67
2022-11-30T07:51:22.402Z,32.50
2022-11-30T07:53:49.320Z,36.80
2022-11-30T07:56:18.098Z,34.30
2022-11-30T07:58:45.024Z,35.27
2022-11-30T08:01:14.771Z,36.00
2022-11-30T08:03:41.678Z,35.40
2022-11-30T08:06:11.539Z,35.37
2022-11-30T08:08:41.392Z,36.20
2022-11-30T08:11:09.997Z,36.77
2022-11-30T08:13:36.685Z,35.23
2022-11-30T08:16:05.633Z,34.93
2022-11-30T08:18:32.002Z,36.27
2022-11-30T08:21:04.373Z,34.90
2022-11-30T08:23:35.409Z,34.70
2022-11-30T08:26:06.584Z,40.67
2022-11-30T08:28:36.138Z,36.17
2022-11-30T08:31:08.906Z,36.80
2022-11-30T08:33:36.675Z,33.27
2022-11-30T08:36:22.391Z,34.13
2022-11-30T08:38:49.209Z,36.63
2022-11-30T08:41:19.148Z,32.87
2022-11-30T08:43:46.437Z,33.97
2022-11-30T08:46:50.760Z,34.13
2022-11-30T08:49:20.336Z,34.17
2022-11-30T08:52:15.862Z,33.10
2022-11-30T08:54:35.146Z,32.43
2022-11-30T08:57:01.827Z,35.80
2022-11-30T08:59:31.447Z,34.57
2022-11-30T09:01:57.795Z,33.63
2022-11-30T09:04:24.286Z,32.50
2022-11-30T09:06:50.606Z,31.83
2022-11-30T09:09:17.286Z,35.37
2022-11-30T09:11:43.715Z,35.87
2022-11-30T09:14:10.431Z,34.80
2022-11-30T09:16:36.761Z,32.20
2022-11-30T09:19:03.560Z,33.07
2022-11-30T09:21:30.371Z,31.53
2022-11-30T09:23:56.948Z,34.80
2022-11-30T09:26:25.757Z,32.07
2022-11-30T09:28:54.099Z,31.20
2022-11-30T09:31:26.283Z,30.70
2022-11-30T09:33:55.757Z,32.17
2022-11-30T09:36:24.057Z,33.33
2022-11-30T09:38:50.434Z,33.43
2022-11-30T09:41:28.707Z,32.70
2022-11-30T09:44:25.667Z,30.33
2022-11-30T09:47:06.358Z,31.83
2022-11-30T09:49:39.388Z,31.43
2022-11-30T09:52:12.914Z,31.67
2022-11-30T09:54:43.846Z,30.37
2022-11-30T09:57:24.145Z,29.53
2022-11-30T09:59:57.509Z,29.97
2022-11-30T10:02:38.440Z,28.40
2022-11-30T10:05:13.841Z,31.40
2022-11-30T10:07:55.211Z,28.80
2022-11-30T10:10:39.629Z,29.53
2022-11-30T10:13:51.809Z,29.20
2022-11-30T10:16:24.236Z,30.50
2022-11-30T10:19:22.390Z,31.60
2022-11-30T10:22:23.147Z,29.73
2022-11-30T10:25:03.870Z,29.40
2022-11-30T10:28:47.118Z,31.13
2022-11-30T10:31:16.097Z,28.20
2022-11-30T10:33:48.943Z,27.93
2022-11-30T10:36:36.241Z,29.20
2022-11-30T10:39:05.941Z,28.50
2022-11-30T10:41:39.428Z,28.67
2022-11-30T10:44:17.442Z,27.20
2022-11-30T10:46:56.339Z,25.57
2022-11-30T10:49:24.136Z,26.07
2022-11-30T10:51:56.485Z,25.73
2022-11-30T10:54:23.653Z,25.80
2022-11-30T10:56:50.146Z,25.67
2022-11-30T10:59:24.530Z,25.77
2022-11-30T11:01:53.383Z,26.40
2022-11-30T11:04:22.908Z,26.47
2022-11-30T11:07:08.900Z,26.83
2022-11-30T11:09:36.621Z,27.10
2022-11-30T11:12:04.705Z,26.73
2022-11-30T11:14:36.455Z,27.47
2022-11-30T11:17:19.187Z,25.20
2022-11-30T11:19:47.972Z,26.40
2022-11-30T11:22:17.618Z,28.03
2022-11-30T11:24:44.581Z,26.87
2022-11-30T11:27:32.855Z,26.50
2022-11-30T11:30:18.175Z,26.60
2022-11-30T11:33:05.409Z,23.60
2022-11-30T11:35:38.442Z,25.37
2022-11-30T11:38:17.877Z,25.93
2022-11-30T11:41:02.242Z,24.80
2022-11-30T11:43:31.555Z,25.27
2022-11-30T11:46:01.877Z,25.43
2022-11-30T11:48:35.933Z,24.60
2022-11-30T11:51:08.742Z,25.20
2022-11-30T11:53:46.320Z,26.13
2022-11-30T11:56:28.984Z,26.07
2022-11-30T11:59:11.822Z,25.70
2022-11-30T12:01:47.624Z,26.67
2022-11-30T12:04:37.680Z,26.57
2022-11-30T12:07:17.920Z,25.57
2022-11-30T12:09:58.419Z,26.00
2022-11-30T12:12:24.844Z,26.80
2022-11-30T12:14:51.282Z,25.20
2022-11-30T12:17:23.776Z,26.00
2022-11-30T12:20:02.915Z,27.93
2022-11-30T12:22:50.742Z,24.90
2022-11-30T12:25:25.346Z,27.17
2022-11-30T12:28:18.246Z,24.53
2022-11-30T12:31:10.557Z,24.10
2022-11-30T12:34:14.100Z,24.97
2022-11-30T12:37:10.474Z,24.13
2022-11-30T12:39:56.967Z,24.90
2022-11-30T12:42:29.191Z,23.73
2022-11-30T12:45:19.629Z,26.70
2022-11-30T12:48:25.739Z,23.53
2022-11-30T12:51:45.835Z,24.60
2022-11-30T12:54:35.177Z,23.73
2022-11-30T12:57:36.488Z,25.57
2022-11-30T13:00:09.171Z,26.00
2022-11-30T13:02:44.652Z,26.07
2022-11-30T13:05:18.685Z,23.80
2022-11-30T13:07:52.648Z,25.70
2022-11-30T13:10:32.569Z,23.93
2022-11-30T13:13:01.243Z,26.40
2022-11-30T13:15:31.140Z,25.43
2022-11-30T13:17:58.032Z,26.27
2022-11-30T13:20:42.771Z,26.60
2022-11-30T13:23:34.005Z,26.20
2022-11-30T13:26:27.232Z,25.73
2022-11-30T13:29:24.353Z,26.63
2022-11-30T13:32:05.271Z,25.07
2022-11-30T13:34:32.851Z,24.90
2022-11-30T13:37:17.217Z,23.50
2022-11-30T13:39:51.238Z,24.30
2022-11-30T13:42:46.055Z,25.30
2022-11-30T13:45:15.378Z,25.03
2022-11-30T13:50:27.334Z,23.90
2022-11-30T13:53:03.568Z,22.87
2022-11-30T13:55:35.731Z,24.07
2022-11-30T13:58:05.978Z,22.27
2022-11-30T14:00:32.277Z,24.43
2022-11-30T14:03:20.230Z,24.00
2022-11-30T14:05:51.424Z,27.33
2022-11-30T14:08:20.603Z,26.40
2022-11-30T14:10:48.031Z,26.67
2022-11-30T14:13:22.443Z,24.30
2022-11-30T14:15:48.793Z,24.67
2022-11-30T14:18:24.312Z,25.03
2022-11-30T14:20:54.183Z,24.50
2022-11-30T14:23:38.682Z,28.43
2022-11-30T14:26:11.691Z,25.47
2022-11-30T14:29:16.664Z,26.07
2022-11-30T14:31:59.572Z,25.27
2022-11-30T14:34:32.198Z,25.47
2022-11-30T14:37:03.175Z,25.60
2022-11-30T14:39:41.835Z,25.03
2022-11-30T14:42:20.655Z,25.43
2022-11-30T14:44:47.920Z,26.50
2022-11-30T14:47:19.767Z,27.40
2022-11-30T14:49:48.807Z,24.57
2022-11-30T14:52:26.621Z,25.07
2022-11-30T14:55:12.383Z,22.90
2022-11-30T14:57:47.191Z,26.33
2022-11-30T15:00:21.183Z,26.53
2022-11-30T15:02:49.496Z,24.53
2022-11-30T15:05:20.678Z,24.60
2022-11-30T15:07:47.943Z,25.73
2022-11-30T15:10:29.358Z,24.73
2022-11-30T15:12:56.802Z,27.00
2022-11-30T15:15:27.802Z,28.53
2022-11-30T15:18:08.027Z,29.13
2022-11-30T15:20:50.601Z,26.57
2022-11-30T15:23:17.433Z,25.80
2022-11-30T15:25:46.825Z,26.50
2022-11-30T15:28:19.789Z,27.70
2022-11-30T15:30:48.509Z,25.57
2022-11-30T15:33:23.205Z,27.23
2022-11-30T15:38:41.063Z,29.23
2022-11-30T15:41:17.889Z,27.57
2022-11-30T15:43:49.501Z,26.93
2022-11-30T15:46:46.146Z,28.10
2022-11-30T15:49:22.599Z,29.50
2022-11-30T15:52:04.181Z,30.90
2022-11-30T15:54:58.810Z,29.50
2022-11-30T15:57:27.181Z,28.00
2022-11-30T16:00:20.714Z,30.70
2022-11-30T16:02:47.137Z,28.53
2022-11-30T16:05:14.773Z,29.47
2022-11-30T16:07:50.961Z,27.63
2022-11-30T16:10:22.734Z,30.60
2022-11-30T16:12:50.936Z,28.43
2022-11-30T16:15:19.498Z,28.43
2022-11-30T16:17:45.899Z,31.93
2022-11-30T16:20:13.935Z,32.00
2022-11-30T16:22:45.873Z,30.07
2022-11-30T16:25:14.755Z,33.33
2022-11-30T16:27:41.778Z,28.87
2022-11-30T16:30:09.979Z,31.07
2022-11-30T16:32:36.305Z,30.27
2022-11-30T16:35:02.775Z,33.40
2022-11-30T16:37:29.094Z,28.73
2022-11-30T16:39:55.545Z,31.50
2022-11-30T16:42:21.882Z,32.80
2022-11-30T16:44:48.253Z,32.57
2022-11-30T16:47:14.567Z,33.50
2022-11-30T16:49:40.933Z,31.80
2022-11-30T16:52:15.193Z,33.93
2022-11-30T16:54:41.558Z,33.50
2022-11-30T16:57:08.491Z,34.33
2022-11-30T16:59:35.053Z,32.33
2022-11-30T17:02:01.460Z,32.80
2022-11-30T17:04:29.549Z,32.90
2022-11-30T17:07:02.190Z,35.07
2022-11-30T17:09:30.267Z,32.67
2022-11-30T17:11:56.687Z,34.33
2022-11-30T17:14:23.057Z,34.20
2022-11-30T17:16:49.598Z,31.50
2022-11-30T17:19:15.994Z,33.40
2022-11-30T17:21:44.421Z,30.67
2022-11-30T17:24:11.615Z,29.40
2022-11-30T17:26:38.067Z,31.57
2022-11-30T17:29:04.402Z,33.10
2022-11-30T17:31:30.857Z,35.63
2022-11-30T17:33:57.274Z,32.10
2022-11-30T17:36:23.709Z,30.20
2022-11-30T17:38:50.560Z,30.07
2022-11-30T17:41:19.903Z,32.80
2022-11-30T17:43:48.809Z,30.77
2022-11-30T17:46:17.232Z,31.00
2022-11-30T17:48:43.730Z,30.57
2022-11-30T17:51:10.754Z,31.30
2022-11-30T17:53:38.124Z,29.93
2022-11-30T17:56:07.317Z,30.80
2022-11-30T17:58:36.956Z,32.13
2022-11-30T18:01:07.859Z,30.87
2022-11-30T18:03:34.769Z,30.90
2022-11-30T18:06:02.205Z,30.43
2022-11-30T18:08:31.722Z,33.90
2022-11-30T18:10:58.475Z,33.70
2022-11-30T18:13:25.103Z,29.63
2022-11-30T18:15:51.548Z,33.17
2022-11-30T18:18:17.906Z,34.23
2022-11-30T18:20:44.296Z,31.63
2022-11-30T18:23:10.666Z,31.07
2022-11-30T18:25:37.105Z,31.60
2022-11-30T18:28:03.585Z,32.23
2022-11-30T18:30:30.032Z,31.10
2022-11-30T18:32:56.474Z,32.87
2022-11-30T18:35:22.844Z,32.80
2022-11-30T18:37:49.165Z,33.70
2022-11-30T18:40:15.682Z,33.37
2022-11-30T18:42:42.002Z,35.97
2022-11-30T18:45:08.771Z,32.03
2022-11-30T18:47:35.123Z,34.23
2022-11-30T18:50:01.498Z,33.47
2022-11-30T18:52:27.849Z,35.47
2022-11-30T18:54:54.173Z,34.27
2022-11-30T18:57:20.518Z,35.83
2022-11-30T18:59:49.788Z,33.37
2022-11-30T19:02:19.872Z,35.40
2022-11-30T19:04:46.523Z,33.50
2022-11-30T19:07:13.206Z,34.50
2022-11-30T19:09:39.544Z,34.50
2022-11-30T19:12:05.997Z,34.00
2022-11-30T19:14:32.314Z,35.53
2022-11-30T19:17:00.682Z,38.37
2022-11-30T19:19:27.260Z,36.20
2022-11-30T19:21:53.630Z,35.60
2022-11-30T19:24:19.997Z,39.20
2022-11-30T19:26:46.414Z,39.90
2022-11-30T19:29:12.903Z,36.90
2022-11-30T19:31:39.542Z,36.83
2022-11-30T19:34:10.818Z,39.10
2022-11-30T19:36:39.481Z,38.33
2022-11-30T19:39:05.829Z,37.77
2022-11-30T19:41:32.222Z,38.77
2022-11-30T19:44:04.045Z,39.10
2022-11-30T19:46:32.110Z,40.73
2022-11-30T19:49:01.220Z,39.03
2022-11-30T19:51:29.380Z,41.03
2022-11-30T19:53:57.296Z,40.30
2022-11-30T19:56:25.381Z,41.20
2022-11-30T19:58:53.172Z,42.60
2022-11-30T20:01:25.192Z,46.60
2022-11-30T20:03:53.208Z,41.63
2022-11-30T20:06:20.246Z,40.07
2022-11-30T20:08:46.587Z,41.70
2022-11-30T20:11:14.526Z,40.87
2022-11-30T20:13:41.748Z,43.87
2022-11-30T20:16:09.434Z,41.73
2022-11-30T20:18:38.255Z,42.50
2022-11-30T20:21:15.721Z,40.57
2022-11-30T20:23:43.501Z,40.67
2022-11-30T20:26:18.795Z,42.47
2022-11-30T20:28:46.192Z,42.17
2022-11-30T20:31:15.103Z,45.23
2022-11-30T20:33:41.475Z,41.77
2022-11-30T20:36:09.338Z,43.10
2022-11-30T20:38:36.147Z,43.57
2022-11-30T20:41:02.921Z,41.30
2022-11-30T20:43:29.617Z,42.00
2022-11-30T20:45:56.229Z,44.53
2022-11-30T20:48:22.578Z,44.50
2022-11-30T20:51:14.058Z,42.20
2022-11-30T20:53:35.450Z,45.43
2022-11-30T20:56:02.023Z,41.80
2022-11-30T20:58:28.390Z,44.23
2022-11-30T21:00:54.833Z,42.73
2022-11-30T21:03:21.200Z,43.90
2022-11-30T21:05:47.668Z,45.03
2022-11-30T21:08:14.047Z,45.40
2022-11-30T21:10:40.496Z,43.90
2022-11-30T21:13:07.028Z,41.17
2022-11-30T21:15:33.516Z,42.47
2022-11-30T21:18:00.087Z,41.03
2022-11-30T21:20:26.611Z,43.67
2022-11-30T21:22:53.046Z,41.23
2022-11-30T21:25:19.387Z,45.77
2022-11-30T21:27:52.190Z,42.70
2022-11-30T21:30:18.748Z,41.60
2022-11-30T21:32:45.169Z,43.73
2022-11-30T21:35:11.489Z,41.43
2022-11-30T21:37:37.850Z,42.47
2022-11-30T21:40:04.647Z,43.70
2022-11-30T21:42:31.083Z,42.47
2022-11-30T21:44:57.417Z,42.60
2022-11-30T21:47:24.530Z,42.50
2022-11-30T21:49:50.856Z,41.60
2022-11-30T21:52:17.295Z,42.97
2022-11-30T21:54:43.622Z,44.37
2022-11-30T21:57:09.975Z,41.63
2022-11-30T21:59:36.326Z,41.50
2022-11-30T22:02:03.096Z,42.43
2022-11-30T22:04:29.533Z,44.10
2022-11-30T22:06:55.902Z,43.33
2022-11-30T22:09:22.234Z,42.40
2022-11-30T22:11:48.602Z,42.97
2022-11-30T22:14:16.679Z,40.60
2022-11-30T22:16:43.986Z,43.07
2022-11-30T22:19:10.394Z,43.67
2022-11-30T22:21:37.147Z,43.50
2022-11-30T22:24:09.776Z,40.03
2022-11-30T22:26:38.612Z,40.30
2022-11-30T22:29:07.822Z,40.93
2022-11-30T22:31:39.954Z,42.97
2022-11-30T22:34:06.876Z,40.30
2022-11-30T22:36:35.498Z,42.57
2022-11-30T22:39:05.824Z,40.80
2022-11-30T22:41:32.378Z,39.03
2022-11-30T22:43:59.342Z,41.57
2022-11-30T22:46:31.505Z,40.87
2022-11-30T22:49:02.823Z,42.70
2022-11-30T22:51:31.118Z,43.27
2022-11-30T22:53:57.795Z,40.13
2022-11-30T22:56:30.214Z,41.00
2022-11-30T22:58:59.913Z,43.27
2022-11-30T23:01:37.651Z,41.30
2022-11-30T23:04:09.838Z,42.23
2022-11-30T23:06:38.328Z,43.30
2022-11-30T23:09:07.259Z,42.07
2022-11-30T23:11:33.696Z,43.10
2022-11-30T23:14:00.135Z,42.83
2022-11-30T23:16:26.564Z,42.70
2022-11-30T23:18:57.352Z,43.20
2022-11-30T23:21:26.042Z,42.63
2022-11-30T23:23:54.379Z,44.63
2022-11-30T23:26:23.235Z,43.23
2022-11-30T23:28:51.437Z,42.83
2022-11-30T23:31:32.246Z,42.73
2022-11-30T23:34:00.247Z,40.07
2022-11-30T23:36:27.074Z,42.77
2022-11-30T23:38:59.231Z,42.03
2022-11-30T23:41:26.287Z,40.17
2022-11-30T23:43:52.810Z,39.50
2022-11-30T23:46:19.370Z,41.30
2022-11-30T23:48:45.795Z,40.10
2022-11-30T23:51:12.110Z,42.37
2022-11-30T23:53:38.689Z,40.80
2022-11-30T23:56:07.785Z,41.73
2022-11-30T23:58:34.512Z,40.13
